»·PEaware :: LBQ783 KMSO-KHLN

LBQ783 :: KMSO-KHLN

FLIGHT INFORMATION

Flight Status: Arrived
Operator: Unknown
More flights by this operator :: More flights under this callsign
Pilot: Walter H. (552)
Aircraft: BEECH AIRCRAFT SUPER KING AIR 350
(B350)
More flights by this aircraft type
Origin: KMSO Missoula Intl
United States
Destination: KHLN Helena Regl
United States
More flights between these airports :: More routes between these airports
Route: +GRZLY3 MSO V2 HLN
File this flight plan on PilotEdge
Remarks:
Altitude:
(Current/Filed)
15,000ft
Speed:
(Current/Filed)
270kts
Departed: 11-Jul-20 07:31 PM
Arrived: 11-Jul-20 08:17 PM
Distance/Time
Traveled:
88nm/0:45
Distance/Time
To Go:
Arrived

Flight Plot

Page will automatically refresh every two minutes.

Flight plan parsing failed; only flown route is shown


Map Options




Map Legend


Flown Route
Filed Route
Departure Airport
Arrival Airport
Navaid (VOR, NDB)
Fix

Horizontal Profiles

Position Reports

Time Latitude Longitude Heading Altitude Ground
Speed
11-Jul-20 19:07 46.924072 -114.092198 128 3200ft 0kts
11-Jul-20 19:08 46.924072 -114.092198 128 3200ft 0kts
11-Jul-20 19:09 46.924072 -114.092198 128 3200ft 0kts
11-Jul-20 19:10 46.924072 -114.092198 128 3200ft 0kts
11-Jul-20 19:11 46.923961 -114.092000 112 3200ft 3kts
11-Jul-20 19:11 46.923942 -114.091212 115 3200ft 9kts
11-Jul-20 19:13 46.922726 -114.089154 219 3202ft 0kts
11-Jul-20 19:14 46.922726 -114.089154 219 3202ft 0kts
11-Jul-20 19:14 46.922721 -114.089161 219 3202ft 0kts
11-Jul-20 19:15 46.920570 -114.091433 215 3200ft 18kts
11-Jul-20 19:17 46.916139 -114.088001 131 3200ft 27kts
11-Jul-20 19:17 46.912117 -114.081114 131 3200ft 21kts
11-Jul-20 19:18 46.908930 -114.077199 181 3195ft 0kts
11-Jul-20 19:19 46.908930 -114.077199 181 3195ft 0kts
11-Jul-20 19:20 46.908930 -114.077199 181 3195ft 0kts
11-Jul-20 19:21 46.908930 -114.077199 181 3195ft 0kts
11-Jul-20 19:22 46.908930 -114.077199 181 3195ft 0kts
11-Jul-20 19:23 46.908930 -114.077199 181 3195ft 0kts
11-Jul-20 19:24 46.908930 -114.077199 181 3195ft 0kts
11-Jul-20 19:25 46.908930 -114.077199 181 3195ft 0kts
11-Jul-20 19:26 46.908930 -114.077199 181 3195ft 0kts
11-Jul-20 19:27 46.908930 -114.077199 181 3195ft 0kts
11-Jul-20 19:28 46.908930 -114.077199 181 3195ft 0kts
11-Jul-20 19:29 46.908153 -114.077989 289 3194ft 7kts
11-Jul-20 19:30 46.922365 -114.102368 309 3654ft 133kts
11-Jul-20 19:31 46.947502 -114.147668 307 5335ft 146kts
11-Jul-20 19:32 46.973819 -114.193476 306 7052ft 149kts
11-Jul-20 19:33 46.992068 -114.241977 235 8643ft 147kts
11-Jul-20 19:34 46.963998 -114.211505 100 10195ft 183kts
11-Jul-20 19:35 46.943957 -114.148150 136 11592ft 175kts
11-Jul-20 19:36 46.912935 -114.092798 136 12893ft 177kts
11-Jul-20 19:37 46.878257 -114.085825 257 14033ft 165kts
11-Jul-20 19:38 46.918611 -114.130227 335 14375ft 215kts
11-Jul-20 19:39 46.972838 -114.116048 70 15031ft 232kts
11-Jul-20 19:40 46.942828 -114.067064 199 15774ft 182kts
11-Jul-20 19:41 46.896038 -114.092394 167 16332ft 199kts
11-Jul-20 19:42 46.867222 -114.029734 73 16950ft 228kts
11-Jul-20 19:43 46.886598 -113.936133 80 16995ft 253kts
11-Jul-20 19:44 46.885772 -113.830725 97 16996ft 265kts
11-Jul-20 19:45 46.878982 -113.730039 99 16979ft 233kts
11-Jul-20 19:46 46.871917 -113.640500 100 16986ft 213kts
11-Jul-20 19:47 46.864952 -113.555620 100 16992ft 209kts
11-Jul-20 19:48 46.853767 -113.472074 121 17023ft 210kts
11-Jul-20 19:49 46.830826 -113.392829 110 16993ft 214kts
11-Jul-20 19:50 46.816621 -113.307679 106 16989ft 215kts
11-Jul-20 19:51 46.804207 -113.222693 98 17032ft 218kts
11-Jul-20 19:52 46.784314 -113.138118 122 17051ft 230kts
11-Jul-20 19:53 46.767804 -113.044314 103 17105ft 246kts
11-Jul-20 19:54 46.754571 -112.947764 106 17127ft 238kts
11-Jul-20 19:55 46.741131 -112.854683 106 17099ft 231kts
11-Jul-20 19:56 46.728351 -112.766389 106 17092ft 211kts
11-Jul-20 19:57 46.716631 -112.685574 106 17071ft 201kts
11-Jul-20 19:58 46.705018 -112.606164 106 17036ft 200kts
11-Jul-20 19:59 46.692653 -112.523998 106 16463ft 219kts
11-Jul-20 20:00 46.679317 -112.433477 106 15634ft 237kts
11-Jul-20 20:01 46.665331 -112.339776 106 14587ft 229kts
11-Jul-20 20:02 46.652168 -112.252233 106 13465ft 215kts
11-Jul-20 20:03 46.640709 -112.171134 105 13000ft 191kts
11-Jul-20 20:04 46.629316 -112.096777 107 13022ft 195kts
11-Jul-20 20:05 46.616328 -112.015095 106 13015ft 216kts
11-Jul-20 20:06 46.603013 -111.928002 105 13071ft 225kts
11-Jul-20 20:07 46.586017 -111.836944 109 12605ft 248kts
11-Jul-20 20:08 46.570284 -111.743365 94 11759ft 215kts
11-Jul-20 20:09 46.597444 -111.672192 57 10480ft 197kts
11-Jul-20 20:10 46.578731 -111.634650 221 9589ft 155kts
11-Jul-20 20:11 46.559831 -111.695602 282 8672ft 200kts
11-Jul-20 20:12 46.574174 -111.778847 281 7046ft 208kts
11-Jul-20 20:13 46.587110 -111.861048 282 5292ft 199kts
11-Jul-20 20:14 46.598291 -111.932292 283 4316ft 156kts
11-Jul-20 20:15 46.605521 -111.979203 283 3854ft 45kts
11-Jul-20 20:16 46.605609 -111.984732 193 3853ft 0kts
11-Jul-20 20:17 46.604364 -111.983704 133 3858ft 18kts
11-Jul-20 20:18 46.603385 -111.988258 266 3866ft 22kts
11-Jul-20 20:19 46.602961 -111.995252 115 3885ft 9kts
11-Jul-20 20:20 46.602871 -111.994937 90 3885ft 0kts
11-Jul-20 20:21 46.602871 -111.994937 90 3885ft 0kts
11-Jul-20 20:22 46.602871 -111.994937 90 3885ft 0kts
11-Jul-20 20:23 46.602871 -111.994937 90 3885ft 0kts
11-Jul-20 20:24 46.602871 -111.994937 90 3885ft 0kts
11-Jul-20 20:25 46.602871 -111.994937 90 3885ft 0kts
11-Jul-20 20:26 46.602871 -111.994937 90 3885ft 0kts
11-Jul-20 20:27 46.602871 -111.994937 90 3885ft 0kts
11-Jul-20 20:28 46.602871 -111.994937 90 3885ft 0kts
11-Jul-20 20:29 46.602871 -111.994937 90 3885ft 0kts
11-Jul-20 20:30 46.602871 -111.994937 90 3885ft 0kts

Navigation Log

Ident Type
Flight plan parsing failed, navigation log unavailable